Rutledge, MO (63563)

3:06 AM CDT on March 30, 2015 (GMT -0500)
Cedar Kahoka | | Change Station
CLOSE
Current Station
Personal Weather Station
Location: Kahoka, MO
Elevation: 705 ft
Nearby Weather Stations

Elev 705 ft 40.42 °N, 91.73 °W | Updated 9 minutes ago

Clear
Clear
38.3 °F
Feels Like 36 °F
N
3.7
Wind Variable Wind from SSW

Today
High -- | Low -- °F
--% Chance of Precip.
Yesterday
High -- | Low -- °F
Precip. -- in
6:55 AM 7:30 PM
Waxing Gibbous, 78% visible
Pressure 30.16 in
Visibility 10.0 miles
Clouds Clear
Windchill 36 °F
Dew Point 27 °F
Humidity 64%
Rainfall 0.00 in
Snow Depth Not available.
UV 0 out of 12
Pollen 5.20 out of 12
Air Quality Not available.
Flu Activity Not available.
METAR KIRK 300755Z AUTO 27005KT 10SM CLR 01/M01 A3014 RMK AO2 SLP213 T00111011 TSNO

More Conditions Fewer Conditions

Pressure 30.16 in
Visibility 10.0 miles
Clouds Clear
Windchill 36 °F
Dew Point 27 °F
Humidity 64%
Rainfall 0.00 in
Snow Depth Not available.
UV 0 out of 12
Pollen 5.20 out of 12
Air Quality Not available.
Flu Activity Not available.
METAR KIRK 300755Z AUTO 27005KT 10SM CLR 01/M01 A3014 RMK AO2 SLP213 T00111011 TSNO

More Conditions Fewer Conditions

10-Day Weather Forecast

Almanac

Astronomy

Mar. 30, 2015 Rise Set
Actual Time
Civil Twilight
Nautical Twilight
Astronomical Twilight
Moon
Length of Visible Light
Length of Day
Tomorrow will be .
, % of the Moon is Illuminated

Today's Extremes

State Highs State Lows

Community

WunderPhotos

Upload Photos

1,809,449 photos uploaded!

WunderBlogs® & News

Nearby

Air Quality

  Air Quality AQ Index Pollutant
Not available.

Snow Depth

Station Depth Elevation

Earthquake Activity

City Distance Mag. Time & Date
Minimum magnitude displayed is 2.5.

Coastal Water Temperatures

Place Temperature

Stations

Nearby Weather Stations

Station Location Temp. Windchill Dew Point Humidity Wind Precip. Elev Updated Type